sensor_id;sensor_type;location;lat;lon;timestamp;pressure;altitude;pressure_sealevel;temperature;humidity
9257;BME280;4665;51.368;6.782;2023-05-20T00:01:00;101959.34;;;12.47;100.00
9257;BME280;4665;51.368;6.782;2023-05-20T00:03:26;101955.53;;;12.50;100.00
9257;BME280;4665;51.368;6.782;2023-05-20T00:05:51;101961.00;;;12.48;100.00
9257;BME280;4665;51.368;6.782;2023-05-20T00:08:17;101957.63;;;12.46;100.00
9257;BME280;4665;51.368;6.782;2023-05-20T00:10:43;101965.66;;;12.46;100.00
9257;BME280;4665;51.368;6.782;2023-05-20T00:13:08;101961.00;;;12.38;100.00
9257;BME280;4665;51.368;6.782;2023-05-20T00:15:35;101955.53;;;12.40;100.00
9257;BME280;4665;51.368;6.782;2023-05-20T00:18:01;101956.91;;;12.34;100.00
9257;BME280;4665;51.368;6.782;2023-05-20T00:20:27;101957.06;;;12.33;100.00
9257;BME280;4665;51.368;6.782;2023-05-20T00:22:53;101967.75;;;12.33;100.00
9257;BME280;4665;51.368;6.782;2023-05-20T00:25:18;101966.19;;;12.30;100.00
9257;BME280;4665;51.368;6.782;2023-05-20T00:27:43;101962.66;;;12.30;100.00
9257;BME280;4665;51.368;6.782;2023-05-20T00:30:09;101970.13;;;12.26;100.00
9257;BME280;4665;51.368;6.782;2023-05-20T00:32:35;101964.06;;;12.24;100.00
9257;BME280;4665;51.368;6.782;2023-05-20T00:35:01;101957.88;;;12.24;100.00
9257;BME280;4665;51.368;6.782;2023-05-20T00:37:27;101966.44;;;12.17;100.00
9257;BME280;4665;51.368;6.782;2023-05-20T00:39:53;101965.59;;;12.17;100.00
9257;BME280;4665;51.368;6.782;2023-05-20T00:42:22;101965.88;;;12.14;100.00
9257;BME280;4665;51.368;6.782;2023-05-20T00:44:48;101971.06;;;12.15;100.00
9257;BME280;4665;51.368;6.782;2023-05-20T00:47:15;101972.78;;;12.16;100.00
9257;BME280;4665;51.368;6.782;2023-05-20T00:49:41;101973.03;;;12.13;100.00
9257;BME280;4665;51.368;6.782;2023-05-20T00:52:07;101969.34;;;12.05;100.00
9257;BME280;4665;51.368;6.782;2023-05-20T00:54:32;101959.75;;;12.02;100.00
9257;BME280;4665;51.368;6.782;2023-05-20T00:56:58;101965.25;;;12.00;100.00
9257;BME280;4665;51.368;6.782;2023-05-20T00:59:25;101963.13;;;11.94;100.00
9257;BME280;4665;51.368;6.782;2023-05-20T01:01:51;101961.28;;;11.95;100.00
9257;BME280;4665;51.368;6.782;2023-05-20T01:04:17;101955.25;;;11.93;100.00
9257;BME280;4665;51.368;6.782;2023-05-20T01:06:43;101955.25;;;11.93;100.00
9257;BME280;4665;51.368;6.782;2023-05-20T01:09:10;101960.00;;;11.89;100.00
9257;BME280;4665;51.368;6.782;2023-05-20T01:14:50;101958.84;;;11.82;100.00
9257;BME280;4665;51.368;6.782;2023-05-20T01:17:21;101963.56;;;11.78;100.00
9257;BME280;4665;51.368;6.782;2023-05-20T01:19:51;101958.25;;;11.78;100.00
9257;BME280;4665;51.368;6.782;2023-05-20T01:22:23;101954.28;;;11.73;100.00
9257;BME280;4665;51.368;6.782;2023-05-20T01:24:49;101955.97;;;11.74;100.00
9257;BME280;4665;51.368;6.782;2023-05-20T01:27:19;101952.47;;;11.73;100.00
9257;BME280;4665;51.368;6.782;2023-05-20T01:29:46;101960.03;;;11.68;100.00
9257;BME280;4665;51.368;6.782;2023-05-20T01:32:27;101947.47;;;11.59;100.00
9257;BME280;4665;51.368;6.782;2023-05-20T01:34:57;101951.72;;;11.62;100.00
9257;BME280;4665;51.368;6.782;2023-05-20T01:37:23;101952.81;;;11.59;100.00
9257;BME280;4665;51.368;6.782;2023-05-20T01:39:50;101941.94;;;11.51;100.00
9257;BME280;4665;51.368;6.782;2023-05-20T01:42:16;101958.56;;;11.54;100.00
9257;BME280;4665;51.368;6.782;2023-05-20T01:44:42;101945.34;;;11.53;100.00
9257;BME280;4665;51.368;6.782;2023-05-20T01:47:08;101939.56;;;11.48;100.00
9257;BME280;4665;51.368;6.782;2023-05-20T01:49:33;101937.88;;;11.47;100.00
9257;BME280;4665;51.368;6.782;2023-05-20T01:51:59;101943.22;;;11.47;100.00
9257;BME280;4665;51.368;6.782;2023-05-20T01:54:24;101943.44;;;11.44;100.00
9257;BME280;4665;51.368;6.782;2023-05-20T01:56:50;101947.63;;;11.36;100.00
9257;BME280;4665;51.368;6.782;2023-05-20T01:59:15;101940.47;;;11.37;100.00
9257;BME280;4665;51.368;6.782;2023-05-20T02:01:41;101945.25;;;11.33;100.00
9257;BME280;4665;51.368;6.782;2023-05-20T02:04:06;101947.91;;;11.33;100.00
9257;BME280;4665;51.368;6.782;2023-05-20T02:06:32;101940.69;;;11.24;100.00
9257;BME280;4665;51.368;6.782;2023-05-20T02:08:58;101941.34;;;11.16;100.00
9257;BME280;4665;51.368;6.782;2023-05-20T02:11:23;101939.06;;;11.12;100.00
9257;BME280;4665;51.368;6.782;2023-05-20T02:13:49;101935.09;;;11.06;100.00
9257;BME280;4665;51.368;6.782;2023-05-20T02:16:15;101940.19;;;11.09;100.00
9257;BME280;4665;51.368;6.782;2023-05-20T02:18:41;101944.63;;;11.09;100.00
9257;BME280;4665;51.368;6.782;2023-05-20T02:21:07;101929.75;;;11.06;100.00
9257;BME280;4665;51.368;6.782;2023-05-20T02:23:33;101942.13;;;11.07;100.00
9257;BME280;4665;51.368;6.782;2023-05-20T02:25:59;101937.91;;;11.05;100.00
9257;BME280;4665;51.368;6.782;2023-05-20T02:28:24;101937.91;;;11.05;100.00
9257;BME280;4665;51.368;6.782;2023-05-20T02:30:49;101938.53;;;10.97;100.00
9257;BME280;4665;51.368;6.782;2023-05-20T02:33:16;101926.19;;;10.96;100.00
9257;BME280;4665;51.368;6.782;2023-05-20T02:35:41;101933.34;;;10.95;100.00
9257;BME280;4665;51.368;6.782;2023-05-20T02:38:07;101936.63;;;10.88;100.00
9257;BME280;4665;51.368;6.782;2023-05-20T02:40:32;101928.81;;;10.75;100.00
9257;BME280;4665;51.368;6.782;2023-05-20T02:42:59;101930.78;;;10.73;100.00
9257;BME280;4665;51.368;6.782;2023-05-20T02:45:25;101925.31;;;10.74;100.00
9257;BME280;4665;51.368;6.782;2023-05-20T02:47:51;101936.06;;;10.84;100.00
9257;BME280;4665;51.368;6.782;2023-05-20T02:50:16;101920.94;;;10.73;100.00
9257;BME280;4665;51.368;6.782;2023-05-20T02:52:43;101916.59;;;10.72;100.00
9257;BME280;4665;51.368;6.782;2023-05-20T02:55:10;101914.31;;;10.68;100.00
9257;BME280;4665;51.368;6.782;2023-05-20T02:57:36;101915.72;;;10.72;100.00
9257;BME280;4665;51.368;6.782;2023-05-20T03:00:05;101912.59;;;10.67;100.00
9257;BME280;4665;51.368;6.782;2023-05-20T03:02:31;101916.72;;;10.71;100.00
9257;BME280;4665;51.368;6.782;2023-05-20T03:04:57;101909.50;;;10.62;100.00
9257;BME280;4665;51.368;6.782;2023-05-20T03:07:23;101912.28;;;10.60;100.00
9257;BME280;4665;51.368;6.782;2023-05-20T03:09:48;101913.97;;;10.61;100.00
9257;BME280;4665;51.368;6.782;2023-05-20T03:12:14;101910.31;;;10.62;100.00
9257;BME280;4665;51.368;6.782;2023-05-20T03:14:39;101910.59;;;10.59;100.00
9257;BME280;4665;51.368;6.782;2023-05-20T03:17:05;101906.09;;;10.60;100.00
9257;BME280;4665;51.368;6.782;2023-05-20T03:19:30;101922.22;;;10.58;100.00
9257;BME280;4665;51.368;6.782;2023-05-20T03:21:56;101920.91;;;10.52;100.00
9257;BME280;4665;51.368;6.782;2023-05-20T03:24:22;101918.97;;;10.55;100.00
9257;BME280;4665;51.368;6.782;2023-05-20T03:26:48;101920.44;;;10.47;100.00
9257;BME280;4665;51.368;6.782;2023-05-20T03:29:13;101922.00;;;10.50;100.00
9257;BME280;4665;51.368;6.782;2023-05-20T03:31:39;101920.56;;;10.46;100.00
9257;BME280;4665;51.368;6.782;2023-05-20T03:34:04;101914.41;;;10.45;100.00
9257;BME280;4665;51.368;6.782;2023-05-20T03:36:31;101917.91;;;10.46;100.00
9257;BME280;4665;51.368;6.782;2023-05-20T03:38:56;101916.34;;;10.43;100.00
9257;BME280;4665;51.368;6.782;2023-05-20T03:41:22;101925.66;;;10.49;100.00
9257;BME280;4665;51.368;6.782;2023-05-20T03:43:47;101920.34;;;10.49;100.00
9257;BME280;4665;51.368;6.782;2023-05-20T03:46:13;101911.94;;;10.53;100.00
9257;BME280;4665;51.368;6.782;2023-05-20T03:48:38;101904.91;;;10.52;100.00
9257;BME280;4665;51.368;6.782;2023-05-20T03:51:03;101895.72;;;10.57;100.00
9257;BME280;4665;51.368;6.782;2023-05-20T03:53:29;101898.94;;;10.60;100.00
9257;BME280;4665;51.368;6.782;2023-05-20T03:55:54;101899.56;;;10.64;100.00
9257;BME280;4665;51.368;6.782;2023-05-20T03:58:20;101898.84;;;10.62;100.00
9257;BME280;4665;51.368;6.782;2023-05-20T04:00:46;101891.81;;;10.61;100.00
9257;BME280;4665;51.368;6.782;2023-05-20T04:03:12;101887.19;;;10.63;100.00
9257;BME280;4665;51.368;6.782;2023-05-20T04:05:37;101892.50;;;10.63;100.00
9257;BME280;4665;51.368;6.782;2023-05-20T04:08:03;101895.91;;;10.65;100.00
9257;BME280;4665;51.368;6.782;2023-05-20T04:10:29;101902.78;;;10.67;100.00
9257;BME280;4665;51.368;6.782;2023-05-20T04:12:58;101903.41;;;10.71;100.00
9257;BME280;4665;51.368;6.782;2023-05-20T04:15:23;101904.84;;;10.75;100.00
9257;BME280;4665;51.368;6.782;2023-05-20T04:17:49;101899.34;;;10.77;100.00
9257;BME280;4665;51.368;6.782;2023-05-20T04:20:17;101912.31;;;10.81;100.00
9257;BME280;4665;51.368;6.782;2023-05-20T04:22:45;101898.00;;;10.82;100.00
9257;BME280;4665;51.368;6.782;2023-05-20T04:25:12;101889.69;;;10.76;100.00
9257;BME280;4665;51.368;6.782;2023-05-20T04:27:38;101902.63;;;10.80;100.00
9257;BME280;4665;51.368;6.782;2023-05-20T04:30:05;101893.06;;;10.78;100.00
9257;BME280;4665;51.368;6.782;2023-05-20T04:32:31;101896.84;;;10.75;100.00
9257;BME280;4665;51.368;6.782;2023-05-20T04:34:58;101901.53;;;10.83;100.00
9257;BME280;4665;51.368;6.782;2023-05-20T04:37:26;101892.56;;;10.84;100.00
9257;BME280;4665;51.368;6.782;2023-05-20T04:39:51;101901.13;;;10.87;100.00
9257;BME280;4665;51.368;6.782;2023-05-20T04:42:17;101895.69;;;10.89;100.00
9257;BME280;4665;51.368;6.782;2023-05-20T04:44:44;101902.97;;;10.87;100.00
9257;BME280;4665;51.368;6.782;2023-05-20T04:47:13;101905.47;;;10.88;100.00
9257;BME280;4665;51.368;6.782;2023-05-20T04:49:39;101906.19;;;10.90;100.00
9257;BME280;4665;51.368;6.782;2023-05-20T04:52:05;101904.41;;;10.91;100.00
9257;BME280;4665;51.368;6.782;2023-05-20T04:54:31;101895.69;;;10.89;100.00
9257;BME280;4665;51.368;6.782;2023-05-20T04:56:57;101899.63;;;10.94;100.00
9257;BME280;4665;51.368;6.782;2023-05-20T04:59:23;101904.47;;;11.01;100.00
9257;BME280;4665;51.368;6.782;2023-05-20T05:01:48;101896.00;;;10.95;100.00
9257;BME280;4665;51.368;6.782;2023-05-20T05:04:14;101898.03;;;11.03;100.00
9257;BME280;4665;51.368;6.782;2023-05-20T05:06:39;101875.13;;;11.01;100.00
9257;BME280;4665;51.368;6.782;2023-05-20T05:09:05;101882.34;;;11.10;100.00
9257;BME280;4665;51.368;6.782;2023-05-20T05:11:30;101878.69;;;11.11;100.00
9257;BME280;4665;51.368;6.782;2023-05-20T05:13:56;101881.13;;;11.14;100.00
9257;BME280;4665;51.368;6.782;2023-05-20T05:16:21;101875.38;;;11.19;100.00
9257;BME280;4665;51.368;6.782;2023-05-20T05:18:47;101872.31;;;11.23;100.00
9257;BME280;4665;51.368;6.782;2023-05-20T05:21:12;101873.72;;;11.27;100.00
9257;BME280;4665;51.368;6.782;2023-05-20T05:23:38;101867.03;;;11.33;100.00
9257;BME280;4665;51.368;6.782;2023-05-20T05:26:03;101855.25;;;11.35;100.00
9257;BME280;4665;51.368;6.782;2023-05-20T05:28:30;101870.00;;;11.40;100.00
9257;BME280;4665;51.368;6.782;2023-05-20T05:30:55;101865.94;;;11.45;100.00
9257;BME280;4665;51.368;6.782;2023-05-20T05:33:21;101868.81;;;11.53;100.00
9257;BME280;4665;51.368;6.782;2023-05-20T05:35:47;101869.09;;;11.60;100.00
9257;BME280;4665;51.368;6.782;2023-05-20T05:38:13;101859.84;;;11.64;100.00
9257;BME280;4665;51.368;6.782;2023-05-20T05:40:38;101865.59;;;11.69;100.00
9257;BME280;4665;51.368;6.782;2023-05-20T05:43:04;101846.78;;;11.71;100.00
9257;BME280;4665;51.368;6.782;2023-05-20T05:45:29;101850.50;;;11.79;100.00
9257;BME280;4665;51.368;6.782;2023-05-20T05:47:55;101863.06;;;11.89;100.00
9257;BME280;4665;51.368;6.782;2023-05-20T05:50:20;101856.31;;;11.94;100.00
9257;BME280;4665;51.368;6.782;2023-05-20T05:52:45;101856.59;;;12.01;100.00
9257;BME280;4665;51.368;6.782;2023-05-20T05:55:11;101838.91;;;12.10;100.00
9257;BME280;4665;51.368;6.782;2023-05-20T05:57:37;101854.66;;;12.23;100.00
9257;BME280;4665;51.368;6.782;2023-05-20T06:00:03;101836.09;;;12.31;100.00
9257;BME280;4665;51.368;6.782;2023-05-20T06:02:29;101840.63;;;12.40;100.00
9257;BME280;4665;51.368;6.782;2023-05-20T06:04:54;101843.69;;;12.55;100.00
9257;BME280;4665;51.368;6.782;2023-05-20T06:07:20;101843.00;;;12.62;100.00
9257;BME280;4665;51.368;6.782;2023-05-20T06:09:46;101840.16;;;12.74;100.00
9257;BME280;4665;51.368;6.782;2023-05-20T06:12:11;101832.41;;;12.80;100.00
9257;BME280;4665;51.368;6.782;2023-05-20T06:14:37;101838.44;;;12.92;100.00
9257;BME280;4665;51.368;6.782;2023-05-20T06:17:02;101833.47;;;13.07;100.00
9257;BME280;4665;51.368;6.782;2023-05-20T06:19:28;101835.13;;;13.18;100.00
9257;BME280;4665;51.368;6.782;2023-05-20T06:21:55;101840.72;;;13.34;100.00
9257;BME280;4665;51.368;6.782;2023-05-20T06:24:21;101828.75;;;13.38;100.00
9257;BME280;4665;51.368;6.782;2023-05-20T06:26:47;101834.91;;;13.49;100.00
9257;BME280;4665;51.368;6.782;2023-05-20T06:29:14;101823.78;;;13.43;100.00
9257;BME280;4665;51.368;6.782;2023-05-20T06:31:40;101830.91;;;13.53;100.00
9257;BME280;4665;51.368;6.782;2023-05-20T06:34:05;101828.28;;;13.43;100.00
9257;BME280;4665;51.368;6.782;2023-05-20T06:36:31;101816.19;;;13.39;100.00
9257;BME280;4665;51.368;6.782;2023-05-20T06:38:56;101808.78;;;13.33;100.00
9257;BME280;4665;51.368;6.782;2023-05-20T06:41:22;101810.63;;;13.32;100.00
9257;BME280;4665;51.368;6.782;2023-05-20T06:43:47;101810.31;;;13.35;100.00
9257;BME280;4665;51.368;6.782;2023-05-20T06:46:13;101800.31;;;13.37;100.00
9257;BME280;4665;51.368;6.782;2023-05-20T06:48:38;101811.66;;;13.49;100.00
9257;BME280;4665;51.368;6.782;2023-05-20T06:51:07;101820.03;;;13.64;100.00
9257;BME280;4665;51.368;6.782;2023-05-20T06:53:35;101821.66;;;13.75;100.00
9257;BME280;4665;51.368;6.782;2023-05-20T06:56:01;101819.22;;;13.81;100.00
9257;BME280;4665;51.368;6.782;2023-05-20T06:58:27;101814.94;;;13.88;100.00
9257;BME280;4665;51.368;6.782;2023-05-20T07:00:52;101805.91;;;13.89;100.00
9257;BME280;4665;51.368;6.782;2023-05-20T07:03:26;101807.28;;;13.94;100.00
9257;BME280;4665;51.368;6.782;2023-05-20T07:05:51;101805.75;;;13.91;100.00
9257;BME280;4665;51.368;6.782;2023-05-20T07:08:25;101808.00;;;13.96;100.00
9257;BME280;4665;51.368;6.782;2023-05-20T07:10:50;101804.53;;;14.03;100.00
9257;BME280;4665;51.368;6.782;2023-05-20T07:13:16;101801.09;;;14.29;100.00
9257;BME280;4665;51.368;6.782;2023-05-20T07:15:45;101792.13;;;14.56;100.00
9257;BME280;4665;51.368;6.782;2023-05-20T07:18:38;101803.34;;;14.78;100.00
9257;BME280;4665;51.368;6.782;2023-05-20T07:21:04;101802.19;;;14.80;100.00
9257;BME280;4665;51.368;6.782;2023-05-20T07:23:51;101805.44;;;14.66;100.00
9257;BME280;4665;51.368;6.782;2023-05-20T07:26:17;101796.25;;;14.50;100.00
9257;BME280;4665;51.368;6.782;2023-05-20T07:28:50;101796.31;;;14.41;100.00
9257;BME280;4665;51.368;6.782;2023-05-20T07:31:16;101790.59;;;14.36;100.00
9257;BME280;4665;51.368;6.782;2023-05-20T07:33:43;101790.28;;;14.39;100.00
9257;BME280;4665;51.368;6.782;2023-05-20T07:36:09;101787.31;;;14.42;100.00
9257;BME280;4665;51.368;6.782;2023-05-20T07:38:34;101785.59;;;14.41;100.00
9257;BME280;4665;51.368;6.782;2023-05-20T07:41:00;101786.97;;;14.45;100.00
9257;BME280;4665;51.368;6.782;2023-05-20T07:43:26;101785.53;;;14.50;100.00
9257;BME280;4665;51.368;6.782;2023-05-20T07:45:51;101784.69;;;14.50;100.00
9257;BME280;4665;51.368;6.782;2023-05-20T07:48:16;101788.38;;;14.49;100.00
9257;BME280;4665;51.368;6.782;2023-05-20T07:50:42;101792.03;;;14.48;100.00
9257;BME280;4665;51.368;6.782;2023-05-20T07:53:07;101785.00;;;14.47;100.00
9257;BME280;4665;51.368;6.782;2023-05-20T07:55:34;101797.38;;;14.48;100.00
9257;BME280;4665;51.368;6.782;2023-05-20T07:58:00;101785.31;;;14.44;100.00
9257;BME280;4665;51.368;6.782;2023-05-20T08:00:25;101795.41;;;14.50;100.00
9257;BME280;4665;51.368;6.782;2023-05-20T08:02:51;101798.53;;;14.45;100.00
9257;BME280;4665;51.368;6.782;2023-05-20T08:05:16;101788.13;;;14.42;100.00
9257;BME280;4665;51.368;6.782;2023-05-20T08:07:42;101795.16;;;14.43;100.00
9257;BME280;4665;51.368;6.782;2023-05-20T08:10:08;101806.44;;;14.47;100.00
9257;BME280;4665;51.368;6.782;2023-05-20T08:12:33;101795.72;;;14.47;100.00
9257;BME280;4665;51.368;6.782;2023-05-20T08:14:59;101799.09;;;14.49;100.00
9257;BME280;4665;51.368;6.782;2023-05-20T08:17:24;101792.72;;;14.50;100.00
9257;BME280;4665;51.368;6.782;2023-05-20T08:19:50;101810.34;;;14.52;100.00
9257;BME280;4665;51.368;6.782;2023-05-20T08:22:15;101795.41;;;14.50;100.00
9257;BME280;4665;51.368;6.782;2023-05-20T08:24:41;101790.03;;;14.50;100.00
9257;BME280;4665;51.368;6.782;2023-05-20T08:27:07;101786.00;;;14.46;100.00
9257;BME280;4665;51.368;6.782;2023-05-20T08:29:32;101786.09;;;14.54;100.00
9257;BME280;4665;51.368;6.782;2023-05-20T08:31:58;101793.50;;;14.60;100.00
9257;BME280;4665;51.368;6.782;2023-05-20T08:34:31;101798.09;;;14.68;100.00
9257;BME280;4665;51.368;6.782;2023-05-20T08:36:57;101791.88;;;14.67;100.00
9257;BME280;4665;51.368;6.782;2023-05-20T08:39:22;101783.38;;;14.72;100.00
9257;BME280;4665;51.368;6.782;2023-05-20T08:41:48;101784.75;;;14.76;100.00
9257;BME280;4665;51.368;6.782;2023-05-20T08:44:13;101789.78;;;14.79;100.00
9257;BME280;4665;51.368;6.782;2023-05-20T08:46:41;101788.16;;;14.86;100.00
9257;BME280;4665;51.368;6.782;2023-05-20T08:49:08;101779.78;;;14.89;100.00
9257;BME280;4665;51.368;6.782;2023-05-20T08:51:35;101785.34;;;14.96;100.00
9257;BME280;4665;51.368;6.782;2023-05-20T08:54:02;101782.41;;;15.07;100.00
9257;BME280;4665;51.368;6.782;2023-05-20T08:56:28;101786.28;;;15.13;100.00
9257;BME280;4665;51.368;6.782;2023-05-20T08:58:54;101782.28;;;15.17;100.00
9257;BME280;4665;51.368;6.782;2023-05-20T09:01:23;101792.72;;;15.20;100.00
9257;BME280;4665;51.368;6.782;2023-05-20T09:03:49;101777.44;;;15.21;100.00
9257;BME280;4665;51.368;6.782;2023-05-20T09:06:16;101780.13;;;15.21;100.00
9257;BME280;4665;51.368;6.782;2023-05-20T09:08:45;101780.63;;;15.24;100.00
9257;BME280;4665;51.368;6.782;2023-05-20T09:11:11;101788.88;;;15.31;100.00
9257;BME280;4665;51.368;6.782;2023-05-20T09:13:37;101786.41;;;15.38;100.00
9257;BME280;4665;51.368;6.782;2023-05-20T09:16:02;101782.53;;;15.40;100.00
9257;BME280;4665;51.368;6.782;2023-05-20T09:18:28;101775.84;;;15.44;100.00
9257;BME280;4665;51.368;6.782;2023-05-20T09:20:54;101786.25;;;15.47;100.00
9257;BME280;4665;51.368;6.782;2023-05-20T09:23:20;101791.47;;;15.49;100.00
9257;BME280;4665;51.368;6.782;2023-05-20T09:25:50;101791.00;;;15.53;100.00
9257;BME280;4665;51.368;6.782;2023-05-20T09:28:21;101790.84;;;15.55;100.00
9257;BME280;4665;51.368;6.782;2023-05-20T09:30:49;101786.09;;;15.49;100.00
9257;BME280;4665;51.368;6.782;2023-05-20T09:33:16;101788.31;;;15.53;100.00
9257;BME280;4665;51.368;6.782;2023-05-20T09:35:42;101788.31;;;15.53;100.00
9257;BME280;4665;51.368;6.782;2023-05-20T09:38:08;101788.81;;;15.57;100.00
9257;BME280;4665;51.368;6.782;2023-05-20T09:40:34;101792.00;;;15.61;100.00
9257;BME280;4665;51.368;6.782;2023-05-20T09:43:05;101790.69;;;15.65;100.00
9257;BME280;4665;51.368;6.782;2023-05-20T09:45:32;101797.44;;;15.69;100.00
9257;BME280;4665;51.368;6.782;2023-05-20T09:47:59;101789.22;;;15.70;100.00
9257;BME280;4665;51.368;6.782;2023-05-20T09:50:26;101783.84;;;15.70;100.00
9257;BME280;4665;51.368;6.782;2023-05-20T09:52:53;101783.84;;;15.70;100.00
9257;BME280;4665;51.368;6.782;2023-05-20T09:55:21;101785.22;;;15.74;100.00
9257;BME280;4665;51.368;6.782;2023-05-20T09:57:46;101788.56;;;15.76;100.00
9257;BME280;4665;51.368;6.782;2023-05-20T10:00:13;101779.00;;;15.82;100.00
9257;BME280;4665;51.368;6.782;2023-05-20T10:02:47;101790.44;;;15.84;100.00
9257;BME280;4665;51.368;6.782;2023-05-20T10:05:21;101788.25;;;15.88;100.00
9257;BME280;4665;51.368;6.782;2023-05-20T10:10:27;101777.16;;;15.83;100.00
9257;BME280;4665;51.368;6.782;2023-05-20T10:21:20;101776.19;;;16.00;100.00
9257;BME280;4665;51.368;6.782;2023-05-20T10:23:49;101777.19;;;16.07;100.00
9257;BME280;4665;51.368;6.782;2023-05-20T10:26:14;101775.34;;;16.08;100.00
9257;BME280;4665;51.368;6.782;2023-05-20T10:28:40;101777.03;;;16.09;100.00
9257;BME280;4665;51.368;6.782;2023-05-20T10:31:17;101771.66;;;16.09;100.00
9257;BME280;4665;51.368;6.782;2023-05-20T10:33:45;101751.84;;;16.02;100.00
9257;BME280;4665;51.368;6.782;2023-05-20T10:36:43;101764.94;;;16.05;100.00
9257;BME280;4665;51.368;6.782;2023-05-20T10:39:13;101778.72;;;16.10;100.00
9257;BME280;4665;51.368;6.782;2023-05-20T10:41:40;101770.16;;;16.06;100.00
9257;BME280;4665;51.368;6.782;2023-05-20T10:44:06;101755.22;;;16.04;100.00
9257;BME280;4665;51.368;6.782;2023-05-20T10:46:32;101769.81;;;16.09;100.00
9257;BME280;4665;51.368;6.782;2023-05-20T10:48:58;101768.31;;;16.07;100.00
9257;BME280;4665;51.368;6.782;2023-05-20T10:51:27;101776.38;;;16.07;100.00
9257;BME280;4665;51.368;6.782;2023-05-20T10:53:54;101760.72;;;15.94;100.00
9257;BME280;4665;51.368;6.782;2023-05-20T10:56:27;101765.59;;;15.90;100.00
9257;BME280;4665;51.368;6.782;2023-05-20T10:58:53;101766.59;;;15.89;100.00
9257;BME280;4665;51.368;6.782;2023-05-20T11:01:24;101774.50;;;15.91;100.00
9257;BME280;4665;51.368;6.782;2023-05-20T11:03:51;101765.91;;;15.87;100.00
9257;BME280;4665;51.368;6.782;2023-05-20T11:06:18;101764.09;;;15.88;100.00
9257;BME280;4665;51.368;6.782;2023-05-20T11:08:44;101764.22;;;15.86;100.00
9257;BME280;4665;51.368;6.782;2023-05-20T11:11:11;101763.75;;;15.91;100.00
9257;BME280;4665;51.368;6.782;2023-05-20T11:13:37;101760.91;;;15.92;100.00
9257;BME280;4665;51.368;6.782;2023-05-20T11:16:03;101758.53;;;15.97;100.00
9257;BME280;4665;51.368;6.782;2023-05-20T11:18:29;101744.78;;;15.92;100.00
9257;BME280;4665;51.368;6.782;2023-05-20T11:20:57;101752.84;;;15.92;100.00
9257;BME280;4665;51.368;6.782;2023-05-20T11:23:22;101759.88;;;15.93;100.00
9257;BME280;4665;51.368;6.782;2023-05-20T11:25:51;101751.81;;;15.93;100.00
9257;BME280;4665;51.368;6.782;2023-05-20T11:28:18;101759.19;;;15.91;100.00
9257;BME280;4665;51.368;6.782;2023-05-20T11:30:46;101750.16;;;15.92;100.00
9257;BME280;4665;51.368;6.782;2023-05-20T11:33:13;101746.09;;;15.96;100.00
9257;BME280;4665;51.368;6.782;2023-05-20T11:35:47;101745.78;;;15.99;100.00
9257;BME280;4665;51.368;6.782;2023-05-20T11:38:14;101751.16;;;15.99;100.00
9257;BME280;4665;51.368;6.782;2023-05-20T11:40:51;101736.22;;;15.97;100.00
9257;BME280;4665;51.368;6.782;2023-05-20T11:43:17;101743.44;;;16.05;100.00
9257;BME280;4665;51.368;6.782;2023-05-20T11:45:45;101753.19;;;16.14;100.00
9257;BME280;4665;51.368;6.782;2023-05-20T11:48:11;101736.03;;;16.15;100.00
9257;BME280;4665;51.368;6.782;2023-05-20T11:50:42;101732.00;;;16.27;100.00
9257;BME280;4665;51.368;6.782;2023-05-20T11:53:09;101727.31;;;16.29;100.00
9257;BME280;4665;51.368;6.782;2023-05-20T11:55:54;101717.38;;;16.38;100.00
9257;BME280;4665;51.368;6.782;2023-05-20T11:58:30;101715.66;;;16.45;100.00
9257;BME280;4665;51.368;6.782;2023-05-20T12:00:55;101706.94;;;16.51;100.00
9257;BME280;4665;51.368;6.782;2023-05-20T12:03:21;101703.38;;;16.59;100.00
9257;BME280;4665;51.368;6.782;2023-05-20T12:05:47;101691.25;;;16.63;100.00
9257;BME280;4665;51.368;6.782;2023-05-20T12:08:13;101702.84;;;16.72;100.00
9257;BME280;4665;51.368;6.782;2023-05-20T12:10:39;101708.53;;;16.77;100.00
9257;BME280;4665;51.368;6.782;2023-05-20T12:13:06;101702.16;;;16.86;100.00
9257;BME280;4665;51.368;6.782;2023-05-20T12:15:37;101692.72;;;16.90;100.00
9257;BME280;4665;51.368;6.782;2023-05-20T12:18:03;101686.00;;;16.94;100.00
9257;BME280;4665;51.368;6.782;2023-05-20T12:20:29;101683.09;;;17.04;100.00
9257;BME280;4665;51.368;6.782;2023-05-20T12:22:56;101683.38;;;17.17;100.00
9257;BME280;4665;51.368;6.782;2023-05-20T12:25:22;101686.31;;;17.31;100.00
9257;BME280;4665;51.368;6.782;2023-05-20T12:27:48;101677.22;;;17.32;100.00
9257;BME280;4665;51.368;6.782;2023-05-20T12:30:16;101682.75;;;17.38;100.00
9257;BME280;4665;51.368;6.782;2023-05-20T12:32:43;101671.78;;;17.40;100.00
9257;BME280;4665;51.368;6.782;2023-05-20T12:35:09;101679.44;;;17.51;100.00
9257;BME280;4665;51.368;6.782;2023-05-20T12:37:36;101669.84;;;17.57;100.00
9257;BME280;4665;51.368;6.782;2023-05-20T12:40:02;101665.75;;;17.61;100.00
9257;BME280;4665;51.368;6.782;2023-05-20T12:42:39;101664.31;;;17.73;100.00
9257;BME280;4665;51.368;6.782;2023-05-20T12:45:05;101668.13;;;17.79;100.00
9257;BME280;4665;51.368;6.782;2023-05-20T12:47:32;101661.41;;;17.83;100.00
9257;BME280;4665;51.368;6.782;2023-05-20T12:49:58;101655.63;;;17.86;100.00
9257;BME280;4665;51.368;6.782;2023-05-20T12:52:24;101668.41;;;17.92;100.00
9257;BME280;4665;51.368;6.782;2023-05-20T12:54:50;101659.78;;;17.97;100.00
9257;BME280;4665;51.368;6.782;2023-05-20T12:57:16;101654.66;;;18.02;100.00
9257;BME280;4665;51.368;6.782;2023-05-20T12:59:43;101651.47;;;17.98;100.00
9257;BME280;4665;51.368;6.782;2023-05-20T13:02:09;101655.66;;;18.01;100.00
9257;BME280;4665;51.368;6.782;2023-05-20T13:04:35;101652.44;;;18.05;100.00
9257;BME280;4665;51.368;6.782;2023-05-20T13:07:02;101645.84;;;18.08;100.00
9257;BME280;4665;51.368;6.782;2023-05-20T13:09:27;101639.59;;;18.07;100.00
9257;BME280;4665;51.368;6.782;2023-05-20T13:11:53;101639.25;;;18.11;100.00